sensor_id;sensor_type;location;lat;lon;timestamp;P1;durP1;ratioP1;P2;durP2;ratioP2
78416;SDS011;67715;46.170;6.140;2023-06-01T00:02:09;6.03;;;4.10;;
78416;SDS011;67715;46.170;6.140;2023-06-01T00:04:34;7.15;;;4.00;;
78416;SDS011;67715;46.170;6.140;2023-06-01T00:07:05;8.23;;;4.30;;
78416;SDS011;67715;46.170;6.140;2023-06-01T00:09:31;5.72;;;4.15;;
78416;SDS011;67715;46.170;6.140;2023-06-01T00:11:57;6.73;;;4.03;;
78416;SDS011;67715;46.170;6.140;2023-06-01T00:14:22;6.93;;;4.67;;
78416;SDS011;67715;46.170;6.140;2023-06-01T00:16:48;7.60;;;4.60;;
78416;SDS011;67715;46.170;6.140;2023-06-01T00:19:13;8.53;;;4.77;;
78416;SDS011;67715;46.170;6.140;2023-06-01T00:21:38;6.20;;;4.30;;
78416;SDS011;67715;46.170;6.140;2023-06-01T00:24:03;6.60;;;3.97;;
78416;SDS011;67715;46.170;6.140;2023-06-01T00:26:29;5.40;;;4.57;;
78416;SDS011;67715;46.170;6.140;2023-06-01T00:28:57;6.25;;;4.45;;
78416;SDS011;67715;46.170;6.140;2023-06-01T00:31:22;7.13;;;5.03;;
78416;SDS011;67715;46.170;6.140;2023-06-01T00:33:49;6.93;;;4.57;;
78416;SDS011;67715;46.170;6.140;2023-06-01T00:36:15;7.18;;;4.82;;
78416;SDS011;67715;46.170;6.140;2023-06-01T00:38:40;5.67;;;3.83;;
78416;SDS011;67715;46.170;6.140;2023-06-01T00:41:05;6.47;;;3.93;;
78416;SDS011;67715;46.170;6.140;2023-06-01T00:43:31;5.70;;;4.07;;
78416;SDS011;67715;46.170;6.140;2023-06-01T00:45:56;5.43;;;4.03;;
78416;SDS011;67715;46.170;6.140;2023-06-01T00:48:21;7.00;;;4.60;;
78416;SDS011;67715;46.170;6.140;2023-06-01T00:50:48;6.28;;;4.63;;
78416;SDS011;67715;46.170;6.140;2023-06-01T00:53:17;6.75;;;4.50;;
78416;SDS011;67715;46.170;6.140;2023-06-01T00:55:44;6.80;;;4.43;;
78416;SDS011;67715;46.170;6.140;2023-06-01T00:58:10;9.43;;;4.97;;
78416;SDS011;67715;46.170;6.140;2023-06-01T01:00:36;7.05;;;4.82;;
78416;SDS011;67715;46.170;6.140;2023-06-01T01:03:03;5.88;;;4.10;;
78416;SDS011;67715;46.170;6.140;2023-06-01T01:05:32;6.88;;;4.30;;
78416;SDS011;67715;46.170;6.140;2023-06-01T01:08:11;5.97;;;4.38;;
78416;SDS011;67715;46.170;6.140;2023-06-01T01:10:39;5.80;;;4.05;;
78416;SDS011;67715;46.170;6.140;2023-06-01T01:16:00;7.22;;;4.32;;
78416;SDS011;67715;46.170;6.140;2023-06-01T01:18:32;5.90;;;4.32;;
78416;SDS011;67715;46.170;6.140;2023-06-01T01:21:02;5.75;;;4.03;;
78416;SDS011;67715;46.170;6.140;2023-06-01T01:24:15;6.32;;;4.45;;
78416;SDS011;67715;46.170;6.140;2023-06-01T01:26:24;5.90;;;4.38;;
78416;SDS011;67715;46.170;6.140;2023-06-01T01:29:12;6.20;;;4.45;;
78416;SDS011;67715;46.170;6.140;2023-06-01T01:31:39;6.55;;;4.38;;
78416;SDS011;67715;46.170;6.140;2023-06-01T01:34:05;7.60;;;4.90;;
78416;SDS011;67715;46.170;6.140;2023-06-01T01:36:31;5.70;;;4.43;;
78416;SDS011;67715;46.170;6.140;2023-06-01T01:38:56;10.85;;;4.93;;
78416;SDS011;67715;46.170;6.140;2023-06-01T01:41:21;6.85;;;4.43;;
78416;SDS011;67715;46.170;6.140;2023-06-01T01:43:47;6.00;;;3.90;;
78416;SDS011;67715;46.170;6.140;2023-06-01T01:46:26;6.28;;;4.68;;
78416;SDS011;67715;46.170;6.140;2023-06-01T01:51:44;6.15;;;3.95;;
78416;SDS011;67715;46.170;6.140;2023-06-01T01:54:15;8.35;;;4.70;;
78416;SDS011;67715;46.170;6.140;2023-06-01T01:56:42;5.57;;;4.18;;
78416;SDS011;67715;46.170;6.140;2023-06-01T01:59:08;6.07;;;4.25;;
78416;SDS011;67715;46.170;6.140;2023-06-01T02:01:34;6.57;;;4.25;;
78416;SDS011;67715;46.170;6.140;2023-06-01T02:04:00;6.20;;;4.75;;
78416;SDS011;67715;46.170;6.140;2023-06-01T02:06:26;5.63;;;4.32;;
78416;SDS011;67715;46.170;6.140;2023-06-01T02:08:51;5.60;;;4.15;;
78416;SDS011;67715;46.170;6.140;2023-06-01T02:11:17;7.50;;;4.30;;
78416;SDS011;67715;46.170;6.140;2023-06-01T02:13:42;6.13;;;4.10;;
78416;SDS011;67715;46.170;6.140;2023-06-01T02:16:07;5.37;;;4.33;;
78416;SDS011;67715;46.170;6.140;2023-06-01T02:18:33;7.83;;;3.80;;
78416;SDS011;67715;46.170;6.140;2023-06-01T02:20:58;4.87;;;3.90;;
78416;SDS011;67715;46.170;6.140;2023-06-01T02:23:23;6.57;;;3.63;;
78416;SDS011;67715;46.170;6.140;2023-06-01T02:25:49;6.10;;;4.40;;
78416;SDS011;67715;46.170;6.140;2023-06-01T02:28:14;5.68;;;4.07;;
78416;SDS011;67715;46.170;6.140;2023-06-01T02:30:39;6.23;;;4.50;;
78416;SDS011;67715;46.170;6.140;2023-06-01T02:33:05;7.77;;;4.73;;
78416;SDS011;67715;46.170;6.140;2023-06-01T02:35:30;5.80;;;4.33;;
78416;SDS011;67715;46.170;6.140;2023-06-01T02:37:55;7.47;;;4.60;;
78416;SDS011;67715;46.170;6.140;2023-06-01T02:40:21;7.93;;;4.03;;
78416;SDS011;67715;46.170;6.140;2023-06-01T02:42:47;6.47;;;4.87;;
78416;SDS011;67715;46.170;6.140;2023-06-01T02:45:12;6.77;;;4.53;;
78416;SDS011;67715;46.170;6.140;2023-06-01T02:47:37;5.50;;;4.27;;
78416;SDS011;67715;46.170;6.140;2023-06-01T02:50:03;5.97;;;4.33;;
78416;SDS011;67715;46.170;6.140;2023-06-01T02:52:30;7.85;;;4.00;;
78416;SDS011;67715;46.170;6.140;2023-06-01T02:54:56;6.25;;;4.15;;
78416;SDS011;67715;46.170;6.140;2023-06-01T02:57:21;7.77;;;4.90;;
78416;SDS011;67715;46.170;6.140;2023-06-01T02:59:46;6.30;;;3.97;;
78416;SDS011;67715;46.170;6.140;2023-06-01T03:02:12;5.50;;;4.20;;
78416;SDS011;67715;46.170;6.140;2023-06-01T03:04:37;5.77;;;4.53;;
78416;SDS011;67715;46.170;6.140;2023-06-01T03:07:03;6.53;;;4.38;;
78416;SDS011;67715;46.170;6.140;2023-06-01T03:09:28;5.53;;;4.33;;
78416;SDS011;67715;46.170;6.140;2023-06-01T03:11:53;6.60;;;4.43;;
78416;SDS011;67715;46.170;6.140;2023-06-01T03:14:18;8.93;;;5.07;;
78416;SDS011;67715;46.170;6.140;2023-06-01T03:16:44;8.35;;;4.68;;
78416;SDS011;67715;46.170;6.140;2023-06-01T03:19:09;6.03;;;4.97;;
78416;SDS011;67715;46.170;6.140;2023-06-01T03:21:34;7.40;;;5.17;;
78416;SDS011;67715;46.170;6.140;2023-06-01T03:24:00;6.93;;;4.70;;
78416;SDS011;67715;46.170;6.140;2023-06-01T03:26:25;7.53;;;4.17;;
78416;SDS011;67715;46.170;6.140;2023-06-01T03:28:51;6.45;;;4.13;;
78416;SDS011;67715;46.170;6.140;2023-06-01T03:31:17;8.63;;;4.33;;
78416;SDS011;67715;46.170;6.140;2023-06-01T03:33:43;5.85;;;4.03;;
78416;SDS011;67715;46.170;6.140;2023-06-01T03:36:09;7.70;;;4.72;;
78416;SDS011;67715;46.170;6.140;2023-06-01T03:38:34;7.63;;;5.20;;
78416;SDS011;67715;46.170;6.140;2023-06-01T03:41:00;6.00;;;4.10;;
78416;SDS011;67715;46.170;6.140;2023-06-01T03:43:26;6.68;;;4.40;;
78416;SDS011;67715;46.170;6.140;2023-06-01T03:45:51;6.18;;;4.50;;
78416;SDS011;67715;46.170;6.140;2023-06-01T03:48:16;18.63;;;5.97;;
78416;SDS011;67715;46.170;6.140;2023-06-01T03:50:42;5.43;;;4.40;;
78416;SDS011;67715;46.170;6.140;2023-06-01T03:53:07;5.37;;;4.23;;
78416;SDS011;67715;46.170;6.140;2023-06-01T03:55:32;8.33;;;4.17;;
78416;SDS011;67715;46.170;6.140;2023-06-01T03:57:59;5.70;;;3.72;;
78416;SDS011;67715;46.170;6.140;2023-06-01T04:00:27;6.30;;;4.47;;
78416;SDS011;67715;46.170;6.140;2023-06-01T04:02:59;6.82;;;4.30;;
78416;SDS011;67715;46.170;6.140;2023-06-01T04:05:26;8.38;;;4.25;;
78416;SDS011;67715;46.170;6.140;2023-06-01T04:07:52;5.72;;;4.10;;
78416;SDS011;67715;46.170;6.140;2023-06-01T04:10:18;7.32;;;4.38;;
78416;SDS011;67715;46.170;6.140;2023-06-01T04:12:44;8.35;;;4.80;;
78416;SDS011;67715;46.170;6.140;2023-06-01T04:15:11;6.57;;;4.78;;
78416;SDS011;67715;46.170;6.140;2023-06-01T04:17:38;6.95;;;4.45;;
78416;SDS011;67715;46.170;6.140;2023-06-01T04:20:04;6.07;;;3.97;;
78416;SDS011;67715;46.170;6.140;2023-06-01T04:22:31;8.75;;;3.95;;
78416;SDS011;67715;46.170;6.140;2023-06-01T04:24:57;8.13;;;5.20;;
78416;SDS011;67715;46.170;6.140;2023-06-01T04:27:22;7.17;;;5.07;;
78416;SDS011;67715;46.170;6.140;2023-06-01T04:29:49;5.82;;;4.15;;
78416;SDS011;67715;46.170;6.140;2023-06-01T04:32:15;7.75;;;4.72;;
78416;SDS011;67715;46.170;6.140;2023-06-01T04:34:46;6.82;;;3.97;;
78416;SDS011;67715;46.170;6.140;2023-06-01T04:37:13;8.95;;;4.47;;
78416;SDS011;67715;46.170;6.140;2023-06-01T04:39:40;7.25;;;4.60;;
78416;SDS011;67715;46.170;6.140;2023-06-01T04:42:07;7.00;;;4.65;;
78416;SDS011;67715;46.170;6.140;2023-06-01T04:44:33;6.75;;;4.28;;
78416;SDS011;67715;46.170;6.140;2023-06-01T04:46:59;10.23;;;4.40;;
78416;SDS011;67715;46.170;6.140;2023-06-01T04:49:28;8.07;;;3.97;;
78416;SDS011;67715;46.170;6.140;2023-06-01T04:51:54;6.93;;;4.50;;
78416;SDS011;67715;46.170;6.140;2023-06-01T04:54:19;9.50;;;5.33;;
78416;SDS011;67715;46.170;6.140;2023-06-01T04:56:44;8.30;;;5.43;;
78416;SDS011;67715;46.170;6.140;2023-06-01T04:59:09;9.43;;;5.40;;
78416;SDS011;67715;46.170;6.140;2023-06-01T05:01:35;8.25;;;6.03;;
78416;SDS011;67715;46.170;6.140;2023-06-01T05:04:02;9.27;;;6.03;;
78416;SDS011;67715;46.170;6.140;2023-06-01T05:06:28;8.73;;;5.28;;
78416;SDS011;67715;46.170;6.140;2023-06-01T05:08:53;7.43;;;5.40;;
78416;SDS011;67715;46.170;6.140;2023-06-01T05:11:19;8.73;;;5.90;;
78416;SDS011;67715;46.170;6.140;2023-06-01T05:13:44;8.23;;;5.55;;
78416;SDS011;67715;46.170;6.140;2023-06-01T05:16:10;9.02;;;5.75;;
78416;SDS011;67715;46.170;6.140;2023-06-01T05:18:35;7.40;;;5.00;;
78416;SDS011;67715;46.170;6.140;2023-06-01T05:21:01;7.13;;;4.35;;
78416;SDS011;67715;46.170;6.140;2023-06-01T05:23:27;6.22;;;4.63;;
78416;SDS011;67715;46.170;6.140;2023-06-01T05:25:53;8.43;;;5.53;;
78416;SDS011;67715;46.170;6.140;2023-06-01T05:28:30;8.35;;;5.32;;
78416;SDS011;67715;46.170;6.140;2023-06-01T05:30:56;12.57;;;6.63;;
78416;SDS011;67715;46.170;6.140;2023-06-01T05:33:21;16.10;;;6.60;;
78416;SDS011;67715;46.170;6.140;2023-06-01T05:35:47;9.50;;;6.40;;
78416;SDS011;67715;46.170;6.140;2023-06-01T05:38:12;10.37;;;5.30;;
78416;SDS011;67715;46.170;6.140;2023-06-01T05:40:37;7.63;;;5.30;;
78416;SDS011;67715;46.170;6.140;2023-06-01T05:43:02;9.27;;;5.83;;
78416;SDS011;67715;46.170;6.140;2023-06-01T05:45:28;10.67;;;5.93;;
78416;SDS011;67715;46.170;6.140;2023-06-01T05:47:53;9.82;;;5.20;;
78416;SDS011;67715;46.170;6.140;2023-06-01T05:50:19;8.57;;;5.43;;
78416;SDS011;67715;46.170;6.140;2023-06-01T05:52:45;8.10;;;5.93;;
78416;SDS011;67715;46.170;6.140;2023-06-01T05:55:10;8.23;;;5.30;;
78416;SDS011;67715;46.170;6.140;2023-06-01T05:57:35;9.65;;;5.75;;
78416;SDS011;67715;46.170;6.140;2023-06-01T06:00:01;8.83;;;7.00;;
78416;SDS011;67715;46.170;6.140;2023-06-01T06:02:27;10.00;;;6.15;;
78416;SDS011;67715;46.170;6.140;2023-06-01T06:04:53;12.07;;;6.65;;
78416;SDS011;67715;46.170;6.140;2023-06-01T06:07:19;10.90;;;6.47;;
78416;SDS011;67715;46.170;6.140;2023-06-01T06:09:45;10.13;;;6.47;;
78416;SDS011;67715;46.170;6.140;2023-06-01T06:12:10;11.70;;;7.47;;
78416;SDS011;67715;46.170;6.140;2023-06-01T06:14:36;8.93;;;6.53;;
78416;SDS011;67715;46.170;6.140;2023-06-01T06:17:01;9.90;;;6.75;;
78416;SDS011;67715;46.170;6.140;2023-06-01T06:19:27;8.02;;;6.20;;
78416;SDS011;67715;46.170;6.140;2023-06-01T06:21:53;11.55;;;6.78;;
78416;SDS011;67715;46.170;6.140;2023-06-01T06:24:18;10.90;;;6.93;;
78416;SDS011;67715;46.170;6.140;2023-06-01T06:26:43;11.17;;;7.57;;
78416;SDS011;67715;46.170;6.140;2023-06-01T06:29:08;9.83;;;5.80;;
78416;SDS011;67715;46.170;6.140;2023-06-01T06:31:35;10.68;;;5.97;;
78416;SDS011;67715;46.170;6.140;2023-06-01T06:34:00;11.10;;;7.43;;
78416;SDS011;67715;46.170;6.140;2023-06-01T06:36:26;8.87;;;6.10;;
78416;SDS011;67715;46.170;6.140;2023-06-01T06:38:51;9.63;;;5.93;;
78416;SDS011;67715;46.170;6.140;2023-06-01T06:41:16;10.13;;;7.15;;
78416;SDS011;67715;46.170;6.140;2023-06-01T06:43:42;10.32;;;6.32;;
78416;SDS011;67715;46.170;6.140;2023-06-01T06:46:07;41.37;;;8.80;;
78416;SDS011;67715;46.170;6.140;2023-06-01T06:48:32;10.33;;;6.10;;
78416;SDS011;67715;46.170;6.140;2023-06-01T06:50:58;9.20;;;6.43;;
78416;SDS011;67715;46.170;6.140;2023-06-01T06:53:23;9.38;;;6.95;;
78416;SDS011;67715;46.170;6.140;2023-06-01T06:55:48;8.97;;;5.90;;
78416;SDS011;67715;46.170;6.140;2023-06-01T06:58:14;10.00;;;6.03;;
78416;SDS011;67715;46.170;6.140;2023-06-01T07:00:39;8.90;;;6.15;;
78416;SDS011;67715;46.170;6.140;2023-06-01T07:03:06;8.82;;;5.82;;
78416;SDS011;67715;46.170;6.140;2023-06-01T07:05:31;8.65;;;6.32;;
78416;SDS011;67715;46.170;6.140;2023-06-01T07:07:57;10.53;;;5.43;;
78416;SDS011;67715;46.170;6.140;2023-06-01T07:10:22;8.30;;;4.97;;
78416;SDS011;67715;46.170;6.140;2023-06-01T07:12:47;10.13;;;6.00;;
78416;SDS011;67715;46.170;6.140;2023-06-01T07:15:12;9.00;;;6.03;;
78416;SDS011;67715;46.170;6.140;2023-06-01T07:17:38;8.17;;;5.60;;
78416;SDS011;67715;46.170;6.140;2023-06-01T07:20:03;10.40;;;7.13;;
78416;SDS011;67715;46.170;6.140;2023-06-01T07:22:31;6.82;;;5.30;;
78416;SDS011;67715;46.170;6.140;2023-06-01T07:24:57;8.65;;;5.82;;
78416;SDS011;67715;46.170;6.140;2023-06-01T07:27:22;9.70;;;5.60;;
78416;SDS011;67715;46.170;6.140;2023-06-01T07:29:47;8.57;;;5.90;;
78416;SDS011;67715;46.170;6.140;2023-06-01T07:32:19;6.45;;;5.30;;
78416;SDS011;67715;46.170;6.140;2023-06-01T07:34:44;6.50;;;5.07;;
78416;SDS011;67715;46.170;6.140;2023-06-01T07:37:10;8.98;;;5.45;;
78416;SDS011;67715;46.170;6.140;2023-06-01T07:39:35;8.48;;;5.20;;
78416;SDS011;67715;46.170;6.140;2023-06-01T07:42:01;6.40;;;4.80;;
78416;SDS011;67715;46.170;6.140;2023-06-01T07:44:26;8.02;;;5.35;;
78416;SDS011;67715;46.170;6.140;2023-06-01T07:46:52;7.38;;;5.07;;
78416;SDS011;67715;46.170;6.140;2023-06-01T07:49:18;9.20;;;5.38;;
78416;SDS011;67715;46.170;6.140;2023-06-01T07:51:43;7.97;;;4.93;;
78416;SDS011;67715;46.170;6.140;2023-06-01T07:54:09;9.32;;;4.97;;
78416;SDS011;67715;46.170;6.140;2023-06-01T07:56:35;8.50;;;5.20;;
78416;SDS011;67715;46.170;6.140;2023-06-01T07:59:00;9.00;;;5.68;;
78416;SDS011;67715;46.170;6.140;2023-06-01T08:01:26;9.30;;;5.13;;
78416;SDS011;67715;46.170;6.140;2023-06-01T08:03:51;8.70;;;5.20;;
78416;SDS011;67715;46.170;6.140;2023-06-01T08:06:17;7.28;;;4.85;;
78416;SDS011;67715;46.170;6.140;2023-06-01T08:08:43;10.82;;;6.25;;
78416;SDS011;67715;46.170;6.140;2023-06-01T08:11:08;8.23;;;5.20;;
78416;SDS011;67715;46.170;6.140;2023-06-01T08:13:34;7.25;;;5.18;;
78416;SDS011;67715;46.170;6.140;2023-06-01T08:16:01;11.75;;;5.38;;
78416;SDS011;67715;46.170;6.140;2023-06-01T08:18:27;6.88;;;4.00;;
78416;SDS011;67715;46.170;6.140;2023-06-01T08:20:53;7.03;;;4.70;;
78416;SDS011;67715;46.170;6.140;2023-06-01T08:23:20;5.63;;;4.65;;
78416;SDS011;67715;46.170;6.140;2023-06-01T08:25:47;6.60;;;5.00;;
78416;SDS011;67715;46.170;6.140;2023-06-01T08:28:13;6.88;;;4.45;;
78416;SDS011;67715;46.170;6.140;2023-06-01T08:30:38;6.83;;;4.33;;
78416;SDS011;67715;46.170;6.140;2023-06-01T08:33:04;7.32;;;5.40;;
78416;SDS011;67715;46.170;6.140;2023-06-01T08:35:29;7.38;;;5.43;;
78416;SDS011;67715;46.170;6.140;2023-06-01T08:37:58;7.03;;;4.60;;
78416;SDS011;67715;46.170;6.140;2023-06-01T08:40:24;8.80;;;5.18;;
78416;SDS011;67715;46.170;6.140;2023-06-01T08:43:09;7.67;;;4.77;;
78416;SDS011;67715;46.170;6.140;2023-06-01T08:45:39;10.40;;;4.88;;
78416;SDS011;67715;46.170;6.140;2023-06-01T08:48:05;7.65;;;5.18;;
78416;SDS011;67715;46.170;6.140;2023-06-01T08:50:33;7.00;;;4.80;;
78416;SDS011;67715;46.170;6.140;2023-06-01T08:52:59;6.50;;;4.93;;
78416;SDS011;67715;46.170;6.140;2023-06-01T08:55:26;5.60;;;4.20;;
78416;SDS011;67715;46.170;6.140;2023-06-01T08:57:51;9.50;;;4.83;;
78416;SDS011;67715;46.170;6.140;2023-06-01T09:00:18;6.07;;;4.45;;
78416;SDS011;67715;46.170;6.140;2023-06-01T09:02:45;6.82;;;4.68;;
78416;SDS011;67715;46.170;6.140;2023-06-01T09:05:11;8.70;;;4.68;;
78416;SDS011;67715;46.170;6.140;2023-06-01T09:07:38;7.53;;;4.18;;
78416;SDS011;67715;46.170;6.140;2023-06-01T09:10:03;7.07;;;4.22;;
78416;SDS011;67715;46.170;6.140;2023-06-01T09:12:30;4.90;;;3.75;;
78416;SDS011;67715;46.170;6.140;2023-06-01T09:15:09;5.72;;;4.00;;
78416;SDS011;67715;46.170;6.140;2023-06-01T09:17:36;5.03;;;3.80;;
78416;SDS011;67715;46.170;6.140;2023-06-01T09:20:02;6.97;;;3.67;;
78416;SDS011;67715;46.170;6.140;2023-06-01T09:22:42;6.45;;;4.13;;
78416;SDS011;67715;46.170;6.140;2023-06-01T09:25:09;5.38;;;3.65;;
78416;SDS011;67715;46.170;6.140;2023-06-01T09:27:42;6.35;;;3.78;;
78416;SDS011;67715;46.170;6.140;2023-06-01T09:30:09;8.90;;;3.80;;
78416;SDS011;67715;46.170;6.140;2023-06-01T09:32:34;6.95;;;3.63;;
78416;SDS011;67715;46.170;6.140;2023-06-01T09:35:00;5.40;;;3.60;;
78416;SDS011;67715;46.170;6.140;2023-06-01T09:37:25;5.47;;;3.92;;
78416;SDS011;67715;46.170;6.140;2023-06-01T09:39:50;6.07;;;3.33;;
78416;SDS011;67715;46.170;6.140;2023-06-01T09:42:16;5.68;;;3.10;;
78416;SDS011;67715;46.170;6.140;2023-06-01T09:44:41;5.20;;;3.30;;
78416;SDS011;67715;46.170;6.140;2023-06-01T09:47:11;5.50;;;3.15;;
78416;SDS011;67715;46.170;6.140;2023-06-01T09:49:39;5.18;;;2.58;;
78416;SDS011;67715;46.170;6.140;2023-06-01T09:54:31;5.33;;;3.23;;
78416;SDS011;67715;46.170;6.140;2023-06-01T09:56:59;8.05;;;4.05;;
78416;SDS011;67715;46.170;6.140;2023-06-01T09:59:26;7.70;;;3.80;;
78416;SDS011;67715;46.170;6.140;2023-06-01T10:01:54;5.93;;;3.75;;
78416;SDS011;67715;46.170;6.140;2023-06-01T10:04:24;5.00;;;3.95;;
78416;SDS011;67715;46.170;6.140;2023-06-01T10:06:51;7.07;;;3.80;;
78416;SDS011;67715;46.170;6.140;2023-06-01T10:09:19;5.68;;;3.42;;
78416;SDS011;67715;46.170;6.140;2023-06-01T10:11:47;5.70;;;3.53;;
78416;SDS011;67715;46.170;6.140;2023-06-01T10:14:13;6.20;;;3.38;;
78416;SDS011;67715;46.170;6.140;2023-06-01T10:16:39;5.93;;;3.90;;
78416;SDS011;67715;46.170;6.140;2023-06-01T10:19:06;5.38;;;3.40;;
78416;SDS011;67715;46.170;6.140;2023-06-01T10:21:32;6.65;;;3.65;;
78416;SDS011;67715;46.170;6.140;2023-06-01T10:23:58;3.65;;;3.30;;
78416;SDS011;67715;46.170;6.140;2023-06-01T10:26:24;6.18;;;3.40;;
78416;SDS011;67715;46.170;6.140;2023-06-01T10:28:51;5.28;;;3.78;;
78416;SDS011;67715;46.170;6.140;2023-06-01T10:34:09;5.15;;;3.17;;
78416;SDS011;67715;46.170;6.140;2023-06-01T10:39:22;5.38;;;3.10;;
78416;SDS011;67715;46.170;6.140;2023-06-01T10:41:51;6.82;;;3.88;;
78416;SDS011;67715;46.170;6.140;2023-06-01T10:47:05;6.72;;;3.58;;
78416;SDS011;67715;46.170;6.140;2023-06-01T10:54:48;6.32;;;4.00;;
78416;SDS011;67715;46.170;6.140;2023-06-01T10:57:24;6.90;;;3.72;;
78416;SDS011;67715;46.170;6.140;2023-06-01T11:08:02;6.15;;;3.40;;
78416;SDS011;67715;46.170;6.140;2023-06-01T11:13:17;5.60;;;3.08;;
78416;SDS011;67715;46.170;6.140;2023-06-01T11:18:54;5.63;;;3.63;;
78416;SDS011;67715;46.170;6.140;2023-06-01T11:21:23;5.05;;;3.53;;
78416;SDS011;67715;46.170;6.140;2023-06-01T11:23:51;4.72;;;3.80;;
78416;SDS011;67715;46.170;6.140;2023-06-01T11:26:19;6.25;;;3.65;;
78416;SDS011;67715;46.170;6.140;2023-06-01T11:28:46;4.13;;;3.58;;
78416;SDS011;67715;46.170;6.140;2023-06-01T11:31:13;7.32;;;3.40;;
78416;SDS011;67715;46.170;6.140;2023-06-01T11:33:41;4.45;;;3.30;;
78416;SDS011;67715;46.170;6.140;2023-06-01T11:36:09;5.13;;;3.10;;
78416;SDS011;67715;46.170;6.140;2023-06-01T11:38:39;5.95;;;4.25;;
78416;SDS011;67715;46.170;6.140;2023-06-01T11:41:10;4.40;;;3.25;;
78416;SDS011;67715;46.170;6.140;2023-06-01T11:43:36;4.67;;;3.30;;
78416;SDS011;67715;46.170;6.140;2023-06-01T11:46:01;4.17;;;3.73;;
78416;SDS011;67715;46.170;6.140;2023-06-01T11:48:27;6.80;;;3.53;;
78416;SDS011;67715;46.170;6.140;2023-06-01T11:50:53;7.32;;;3.90;;
78416;SDS011;67715;46.170;6.140;2023-06-01T11:53:19;5.43;;;3.33;;
78416;SDS011;67715;46.170;6.140;2023-06-01T11:55:49;4.43;;;3.30;;
78416;SDS011;67715;46.170;6.140;2023-06-01T11:58:22;6.97;;;3.35;;
78416;SDS011;67715;46.170;6.140;2023-06-01T12:00:50;5.90;;;3.17;;
78416;SDS011;67715;46.170;6.140;2023-06-01T12:03:16;6.72;;;3.78;;
78416;SDS011;67715;46.170;6.140;2023-06-01T12:05:42;5.32;;;4.03;;
78416;SDS011;67715;46.170;6.140;2023-06-01T12:08:15;6.57;;;3.50;;
78416;SDS011;67715;46.170;6.140;2023-06-01T12:10:43;5.18;;;3.47;;
78416;SDS011;67715;46.170;6.140;2023-06-01T12:13:09;4.70;;;3.53;;
78416;SDS011;67715;46.170;6.140;2023-06-01T12:15:36;6.20;;;3.30;;
78416;SDS011;67715;46.170;6.140;2023-06-01T12:18:02;7.10;;;3.58;;
78416;SDS011;67715;46.170;6.140;2023-06-01T12:20:30;8.80;;;3.88;;
78416;SDS011;67715;46.170;6.140;2023-06-01T12:23:11;9.85;;;4.03;;
78416;SDS011;67715;46.170;6.140;2023-06-01T12:25:54;5.35;;;4.15;;
78416;SDS011;67715;46.170;6.140;2023-06-01T12:28:21;6.47;;;3.28;;
78416;SDS011;67715;46.170;6.140;2023-06-01T12:30:47;4.22;;;3.45;;
78416;SDS011;67715;46.170;6.140;2023-06-01T12:33:29;5.22;;;3.97;;
78416;SDS011;67715;46.170;6.140;2023-06-01T12:35:56;5.78;;;3.60;;
78416;SDS011;67715;46.170;6.140;2023-06-01T12:38:21;8.60;;;4.00;;
78416;SDS011;67715;46.170;6.140;2023-06-01T12:40:47;4.30;;;3.33;;
78416;SDS011;67715;46.170;6.140;2023-06-01T12:43:30;6.38;;;3.63;;
78416;SDS011;67715;46.170;6.140;2023-06-01T12:45:56;4.82;;;3.50;;
78416;SDS011;67715;46.170;6.140;2023-06-01T12:48:34;6.03;;;4.25;;
78416;SDS011;67715;46.170;6.140;2023-06-01T12:51:01;7.35;;;3.58;;
78416;SDS011;67715;46.170;6.140;2023-06-01T12:53:28;6.07;;;3.97;;
78416;SDS011;67715;46.170;6.140;2023-06-01T12:55:53;6.45;;;4.32;;
78416;SDS011;67715;46.170;6.140;2023-06-01T12:58:19;4.47;;;3.47;;
78416;SDS011;67715;46.170;6.140;2023-06-01T13:00:44;5.05;;;3.13;;
78416;SDS011;67715;46.170;6.140;2023-06-01T13:03:10;10.40;;;4.30;;
78416;SDS011;67715;46.170;6.140;2023-06-01T13:05:35;5.83;;;3.83;;
78416;SDS011;67715;46.170;6.140;2023-06-01T13:08:00;5.37;;;3.50;;
78416;SDS011;67715;46.170;6.140;2023-06-01T13:10:27;5.43;;;3.78;;
78416;SDS011;67715;46.170;6.140;2023-06-01T13:12:53;5.30;;;3.80;;
78416;SDS011;67715;46.170;6.140;2023-06-01T13:15:20;6.88;;;4.03;;
78416;SDS011;67715;46.170;6.140;2023-06-01T13:17:46;9.85;;;3.65;;
78416;SDS011;67715;46.170;6.140;2023-06-01T13:20:11;4.88;;;3.42;;
78416;SDS011;67715;46.170;6.140;2023-06-01T13:22:37;7.05;;;3.60;;
78416;SDS011;67715;46.170;6.140;2023-06-01T13:25:03;7.72;;;3.83;;
78416;SDS011;67715;46.170;6.140;2023-06-01T13:27:29;7.88;;;4.90;;
78416;SDS011;67715;46.170;6.140;2023-06-01T13:29:55;5.90;;;3.33;;
78416;SDS011;67715;46.170;6.140;2023-06-01T13:32:20;6.13;;;3.40;;
78416;SDS011;67715;46.170;6.140;2023-06-01T13:34:46;7.07;;;3.75;;
78416;SDS011;67715;46.170;6.140;2023-06-01T13:37:11;7.65;;;3.45;;
78416;SDS011;67715;46.170;6.140;2023-06-01T13:39:37;4.18;;;3.15;;
78416;SDS011;67715;46.170;6.140;2023-06-01T13:42:03;7.90;;;3.90;;
78416;SDS011;67715;46.170;6.140;2023-06-01T13:44:30;8.43;;;4.15;;
78416;SDS011;67715;46.170;6.140;2023-06-01T13:46:55;4.40;;;3.33;;
78416;SDS011;67715;46.170;6.140;2023-06-01T13:49:21;5.60;;;3.42;;
78416;SDS011;67715;46.170;6.140;2023-06-01T13:51:47;7.05;;;3.53;;
78416;SDS011;67715;46.170;6.140;2023-06-01T13:54:12;6.90;;;3.80;;
78416;SDS011;67715;46.170;6.140;2023-06-01T13:56:38;5.38;;;3.55;;
78416;SDS011;67715;46.170;6.140;2023-06-01T13:59:03;5.30;;;3.20;;
78416;SDS011;67715;46.170;6.140;2023-06-01T14:01:29;6.70;;;4.13;;
78416;SDS011;67715;46.170;6.140;2023-06-01T14:03:54;5.47;;;3.50;;
78416;SDS011;67715;46.170;6.140;2023-06-01T14:06:20;4.67;;;3.13;;
78416;SDS011;67715;46.170;6.140;2023-06-01T14:08:45;5.53;;;3.63;;
78416;SDS011;67715;46.170;6.140;2023-06-01T14:11:10;6.13;;;3.75;;
78416;SDS011;67715;46.170;6.140;2023-06-01T14:13:36;4.55;;;3.30;;
78416;SDS011;67715;46.170;6.140;2023-06-01T14:16:01;7.90;;;3.10;;
78416;SDS011;67715;46.170;6.140;2023-06-01T14:18:26;4.70;;;3.25;;
78416;SDS011;67715;46.170;6.140;2023-06-01T14:20:52;6.50;;;3.57;;
78416;SDS011;67715;46.170;6.140;2023-06-01T14:23:17;7.25;;;3.53;;
78416;SDS011;67715;46.170;6.140;2023-06-01T14:25:43;5.32;;;3.47;;
78416;SDS011;67715;46.170;6.140;2023-06-01T14:28:08;6.50;;;3.50;;
78416;SDS011;67715;46.170;6.140;2023-06-01T14:30:33;7.05;;;3.67;;
78416;SDS011;67715;46.170;6.140;2023-06-01T14:32:59;5.10;;;3.35;;
78416;SDS011;67715;46.170;6.140;2023-06-01T14:35:25;7.13;;;3.72;;
78416;SDS011;67715;46.170;6.140;2023-06-01T14:37:51;5.13;;;3.42;;
78416;SDS011;67715;46.170;6.140;2023-06-01T14:40:17;5.72;;;3.78;;
78416;SDS011;67715;46.170;6.140;2023-06-01T14:42:42;5.10;;;3.70;;
78416;SDS011;67715;46.170;6.140;2023-06-01T14:45:07;7.10;;;3.57;;
78416;SDS011;67715;46.170;6.140;2023-06-01T14:47:33;5.25;;;3.85;;
78416;SDS011;67715;46.170;6.140;2023-06-01T14:49:58;5.70;;;3.30;;
78416;SDS011;67715;46.170;6.140;2023-06-01T14:52:24;7.07;;;3.30;;
78416;SDS011;67715;46.170;6.140;2023-06-01T14:54:49;6.43;;;3.53;;
78416;SDS011;67715;46.170;6.140;2023-06-01T14:57:15;7.70;;;3.92;;
78416;SDS011;67715;46.170;6.140;2023-06-01T14:59:41;6.45;;;3.45;;
78416;SDS011;67715;46.170;6.140;2023-06-01T15:02:06;8.77;;;3.77;;
78416;SDS011;67715;46.170;6.140;2023-06-01T15:04:32;5.10;;;3.17;;
78416;SDS011;67715;46.170;6.140;2023-06-01T15:06:58;6.30;;;3.70;;
78416;SDS011;67715;46.170;6.140;2023-06-01T15:09:24;6.53;;;3.88;;
78416;SDS011;67715;46.170;6.140;2023-06-01T15:11:49;6.30;;;3.87;;
78416;SDS011;67715;46.170;6.140;2023-06-01T15:14:14;5.53;;;3.63;;
78416;SDS011;67715;46.170;6.140;2023-06-01T15:16:40;6.53;;;3.83;;
78416;SDS011;67715;46.170;6.140;2023-06-01T15:19:06;5.45;;;3.80;;